Time;durP1;ratioP1;P1;durP2;ratioP2;P2;SDS_P1;SDS_P2;PMS_P1;PMS_P2;Temp;Humidity;BMP_temperature;BMP_pressure;BME280_temperature;BME280_humidity;BME280_pressure;Samples;Min_cycle;Max_cycle;Signal;HPM_P1;HPM_P2
2022/05/12 00:01:03;;;;;;;6.47;2.53;;;19.90;99.90;;;;;;5103856;28;20019;-88
2022/05/12 00:03:29;;;;;;;14.30;3.20;;;19.90;99.90;;;;;;5113491;28;20020;-89
2022/05/12 00:05:54;;;;;;;12.50;3.22;;;19.90;99.90;;;;;;5091916;28;20111;-88
2022/05/12 00:08:21;;;;;;;17.65;3.35;;;19.90;99.90;;;;;;5094366;28;20051;-88
2022/05/12 00:10:47;;;;;;;4.68;2.90;;;19.80;99.90;;;;;;5094546;28;20365;-88
2022/05/12 00:13:13;;;;;;;6.53;2.92;;;19.80;99.90;;;;;;5088461;28;20034;-89
2022/05/12 00:15:40;;;;;;;6.78;3.30;;;19.80;99.90;;;;;;5105215;27;20035;-88
2022/05/12 00:18:08;;;;;;;6.85;3.38;;;19.80;99.90;;;;;;5134138;27;20364;-88
2022/05/12 00:20:38;;;;;;;10.98;3.45;;;19.70;99.90;;;;;;5112961;28;20353;-88
2022/05/12 00:23:18;;;;;;;8.43;3.72;;;19.70;99.90;;;;;;5112045;28;20115;-90
2022/05/12 00:25:47;;;;;;;11.40;3.50;;;19.70;99.90;;;;;;5114549;28;20020;-87
2022/05/12 00:28:16;;;;;;;12.95;3.70;;;19.80;99.90;;;;;;5114154;28;20463;-87
2022/05/12 00:30:46;;;;;;;15.32;3.55;;;19.80;99.90;;;;;;5095948;28;20027;-87
2022/05/12 00:33:27;;;;;;;8.25;3.50;;;19.80;99.90;;;;;;5113800;27;20019;-88
2022/05/12 00:35:54;;;;;;;10.85;3.35;;;19.80;99.90;;;;;;5093957;28;20042;-87
2022/05/12 00:38:19;;;;;;;9.13;3.25;;;19.80;99.90;;;;;;5079157;28;20460;-87
2022/05/12 00:40:47;;;;;;;13.05;3.70;;;19.80;99.90;;;;;;5092573;28;20027;-87
2022/05/12 00:43:45;;;;;;;16.83;3.30;;;19.80;99.90;;;;;;5094310;28;20032;-87
2022/05/12 00:46:22;;;;;;;14.18;4.82;;;19.80;99.90;;;;;;5114228;28;20019;-89
2022/05/12 00:48:49;;;;;;;8.38;3.45;;;19.80;99.90;;;;;;5119941;27;20023;-88
2022/05/12 00:51:34;;;;;;;13.23;3.33;;;19.80;99.90;;;;;;5134771;27;20027;-89
2022/05/12 00:54:15;;;;;;;11.02;4.20;;;19.80;99.90;;;;;;5101878;28;20044;-87
2022/05/12 00:56:41;;;;;;;12.80;3.50;;;19.70;99.90;;;;;;5093505;28;20043;-86
2022/05/12 00:59:11;;;;;;;17.33;4.57;;;19.50;99.90;;;;;;5093638;28;20023;-87
2022/05/12 01:02:25;;;;;;;12.75;4.00;;;19.20;99.90;;;;;;5093685;28;20020;-89
2022/05/12 01:04:51;;;;;;;13.43;3.95;;;19.00;99.90;;;;;;5095589;28;20507;-89
2022/05/12 01:07:16;;;;;;;15.68;3.80;;;18.60;99.90;;;;;;5094634;28;20043;-86
2022/05/12 01:10:00;;;;;;;12.23;4.65;;;18.50;99.90;;;;;;5109278;28;20031;-91
2022/05/12 01:12:26;;;;;;;17.55;5.07;;;18.20;99.90;;;;;;5095763;28;20032;-88
2022/05/12 01:14:52;;;;;;;10.73;4.60;;;17.90;99.90;;;;;;5101347;28;20035;-88
2022/05/12 01:17:32;;;;;;;21.80;5.03;;;17.70;99.90;;;;;;5075102;28;20020;-88
2022/05/12 01:19:58;;;;;;;12.63;4.70;;;17.60;99.90;;;;;;5114557;27;20023;-88
2022/05/12 01:23:01;;;;;;;15.02;4.22;;;17.40;99.90;;;;;;5133950;27;20045;-86
2022/05/12 01:25:29;;;;;;;15.32;4.50;;;17.40;99.90;;;;;;5093160;28;20392;-87
2022/05/12 01:28:08;;;;;;;19.38;4.85;;;17.30;99.90;;;;;;5079207;27;20058;-87
2022/05/12 01:30:34;;;;;;;14.45;5.40;;;17.30;99.90;;;;;;5125595;27;20149;-89
2022/05/12 01:33:02;;;;;;;8.93;4.80;;;17.20;99.90;;;;;;5106916;28;20535;-87
2022/05/12 01:35:28;;;;;;;12.18;5.63;;;17.10;99.90;;;;;;5094673;28;20162;-87
2022/05/12 01:37:53;;;;;;;15.88;5.25;;;17.00;99.90;;;;;;5111182;28;20107;-88
2022/05/12 01:40:38;;;;;;;10.05;4.65;;;17.10;99.90;;;;;;5113297;28;20059;-87
2022/05/12 01:43:04;;;;;;;15.18;5.13;;;17.00;99.90;;;;;;5092703;28;20035;-87
2022/05/12 01:45:31;;;;;;;13.23;4.60;;;17.00;99.90;;;;;;5098779;27;20027;-86
2022/05/12 01:47:56;;;;;;;13.68;4.13;;;17.00;99.90;;;;;;5082654;28;20032;-87
2022/05/12 01:50:33;;;;;;;9.95;3.95;;;17.00;99.90;;;;;;5090292;28;20429;-87
2022/05/12 01:52:59;;;;;;;11.20;4.25;;;17.00;99.90;;;;;;5110725;28;20028;-87
2022/05/12 01:55:26;;;;;;;9.07;3.85;;;17.00;99.90;;;;;;5103182;28;20788;-86
2022/05/12 01:57:57;;;;;;;7.72;3.47;;;17.00;99.90;;;;;;5099819;28;20020;-87
2022/05/12 02:00:26;;;;;;;15.73;3.88;;;17.10;99.90;;;;;;5092562;28;20081;-87
2022/05/12 02:02:52;;;;;;;11.32;3.90;;;17.10;99.90;;;;;;5096173;28;20024;-87
2022/05/12 02:08:40;;;;;;;8.52;3.58;;;17.20;99.90;;;;;;5112833;28;20034;-87
2022/05/12 02:11:09;;;;;;;9.00;3.90;;;17.30;99.90;;;;;;5112994;28;20399;-87
2022/05/12 02:13:34;;;;;;;12.50;3.67;;;17.30;99.90;;;;;;5111087;28;20123;-89
2022/05/12 02:16:00;;;;;;;7.72;3.30;;;17.30;99.90;;;;;;5100539;28;20095;-89
2022/05/12 02:18:46;;;;;;;13.40;4.30;;;17.40;99.90;;;;;;5116681;28;20042;-88
2022/05/12 02:21:12;;;;;;;13.88;3.47;;;17.40;99.90;;;;;;5091314;28;20024;-88
2022/05/12 02:23:37;;;;;;;12.95;4.15;;;17.40;99.90;;;;;;5097116;28;20032;-88
2022/05/12 02:26:03;;;;;;;17.17;3.58;;;17.40;99.90;;;;;;5112596;28;20039;-88
2022/05/12 02:28:28;;;;;;;10.10;2.80;;;17.30;99.90;;;;;;5096453;28;20123;-93
2022/05/12 02:30:54;;;;;;;5.53;2.20;;;17.30;99.90;;;;;;5115621;28;20417;-92
2022/05/12 02:33:26;;;;;;;3.97;1.67;;;17.20;99.90;;;;;;5116634;28;20020;-91
2022/05/12 02:35:51;;;;;;;5.78;1.48;;;17.20;99.90;;;;;;5115434;28;20483;-88
2022/05/12 02:38:17;;;;;;;2.97;1.42;;;17.20;99.90;;;;;;5102795;28;20065;-88
2022/05/12 02:40:44;;;;;;;6.13;1.60;;;17.10;99.90;;;;;;5112950;27;20387;-88
2022/05/12 02:46:06;;;;;;;2.45;1.13;;;17.10;99.90;;;;;;5117146;28;20075;-89
2022/05/12 02:48:35;;;;;;;2.55;1.15;;;17.00;99.90;;;;;;5114971;27;20026;-87
2022/05/12 02:51:01;;;;;;;3.45;1.70;;;17.00;99.90;;;;;;5109395;28;20046;-89
2022/05/12 02:53:28;;;;;;;4.70;2.20;;;17.00;99.90;;;;;;5120089;27;20019;-92
2022/05/12 02:55:54;;;;;;;6.85;1.90;;;17.00;99.90;;;;;;5122243;27;20047;-90
2022/05/12 02:58:20;;;;;;;4.25;1.63;;;16.90;99.90;;;;;;5104532;28;20028;-88
2022/05/12 03:00:48;;;;;;;6.47;2.00;;;16.90;99.90;;;;;;5107408;28;20023;-86
2022/05/12 03:03:14;;;;;;;8.82;1.90;;;16.80;99.90;;;;;;5105918;27;20020;-92
2022/05/12 03:05:40;;;;;;;3.05;1.65;;;16.70;99.90;;;;;;5094340;28;20069;-87
2022/05/12 03:08:43;;;;;;;7.57;1.95;;;16.70;99.90;;;;;;5094681;28;20039;-90
2022/05/12 03:11:09;;;;;;;23.40;2.97;;;16.60;99.90;;;;;;5101484;27;20058;-89
2022/05/12 03:13:34;;;;;;;6.25;1.90;;;16.60;99.90;;;;;;5096212;28;20425;-89
2022/05/12 03:16:01;;;;;;;7.15;1.70;;;16.60;99.90;;;;;;5081616;28;20056;-87
2022/05/12 03:18:26;;;;;;;4.60;1.60;;;16.50;99.90;;;;;;5095294;28;20024;-86
2022/05/12 03:20:52;;;;;;;6.90;2.10;;;16.40;99.90;;;;;;5114311;28;20015;-87
2022/05/12 03:23:28;;;;;;;4.88;2.30;;;16.40;99.90;;;;;;5113970;28;20429;-86
2022/05/12 03:25:54;;;;;;;2.70;1.50;;;16.40;99.90;;;;;;5115514;28;20076;-87
2022/05/12 03:28:29;;;;;;;5.28;1.58;;;16.40;99.90;;;;;;5115753;28;20418;-87
2022/05/12 03:30:54;;;;;;;4.80;1.60;;;16.40;99.90;;;;;;5107703;28;20380;-89
2022/05/12 03:33:20;;;;;;;11.70;1.52;;;16.30;99.90;;;;;;5108866;27;20027;-87
2022/05/12 03:36:04;;;;;;;6.32;1.85;;;16.30;99.90;;;;;;5098724;27;20349;-85
2022/05/12 03:38:30;;;;;;;8.10;1.00;;;16.30;99.90;;;;;;5101153;27;20024;-86
2022/05/12 03:40:56;;;;;;;9.13;1.30;;;16.30;99.90;;;;;;5111394;28;20103;-88
2022/05/12 03:46:08;;;;;;;5.05;1.27;;;16.10;99.90;;;;;;5108776;27;20053;-89
2022/05/12 03:48:43;;;;;;;5.68;1.10;;;16.00;99.90;;;;;;5106673;28;20023;-86
2022/05/12 03:51:09;;;;;;;3.78;1.42;;;16.00;99.90;;;;;;5115274;28;20395;-87
2022/05/12 03:53:36;;;;;;;4.00;0.93;;;15.90;99.90;;;;;;5114479;27;20039;-89
2022/05/12 03:56:11;;;;;;;2.83;1.58;;;15.90;99.90;;;;;;5112562;28;20020;-85
2022/05/12 03:58:36;;;;;;;3.38;1.40;;;15.80;99.90;;;;;;5115107;28;20084;-89
2022/05/12 04:01:04;;;;;;;2.05;1.00;;;15.80;99.90;;;;;;5102712;28;20036;-85
2022/05/12 04:03:31;;;;;;;5.18;1.08;;;15.80;99.90;;;;;;5104802;28;20020;-87
2022/05/12 04:06:01;;;;;;;8.88;1.50;;;15.80;99.90;;;;;;5111796;28;20020;-88
2022/05/12 04:08:28;;;;;;;11.70;1.00;;;15.70;99.90;;;;;;5114937;28;20498;-86
2022/05/12 04:11:13;;;;;;;3.30;1.00;;;15.70;99.90;;;;;;5113391;27;20475;-88
2022/05/12 04:13:38;;;;;;;8.10;1.48;;;15.60;99.90;;;;;;5111996;28;20031;-87
2022/05/12 04:16:04;;;;;;;5.07;1.33;;;15.60;99.90;;;;;;5119823;27;20557;-86
2022/05/12 04:18:33;;;;;;;5.20;1.20;;;15.50;99.90;;;;;;5114987;27;20399;-85
2022/05/12 04:20:58;;;;;;;6.38;1.20;;;15.50;99.90;;;;;;5104372;27;20471;-86
2022/05/12 04:23:26;;;;;;;5.25;1.45;;;15.40;99.90;;;;;;5113232;27;20026;-86
2022/05/12 04:25:51;;;;;;;8.73;1.23;;;15.50;99.90;;;;;;5114566;28;20072;-88
2022/05/12 04:28:17;;;;;;;5.15;1.15;;;15.40;99.90;;;;;;5113521;27;20110;-87
2022/05/12 04:30:44;;;;;;;8.52;1.40;;;15.40;99.90;;;;;;5111351;27;20023;-89
2022/05/12 04:35:54;;;;;;;5.45;1.17;;;15.30;99.90;;;;;;5123946;27;20027;-87
2022/05/12 04:38:40;;;;;;;5.15;0.90;;;15.30;99.90;;;;;;5133903;27;20024;-85
2022/05/12 04:41:07;;;;;;;3.22;1.48;;;15.20;99.90;;;;;;5110633;28;20027;-85
2022/05/12 04:43:33;;;;;;;3.10;0.73;;;15.20;99.90;;;;;;5112014;28;20052;-86
2022/05/12 04:46:08;;;;;;;4.53;1.38;;;15.30;99.90;;;;;;5113642;28;20709;-86
2022/05/12 04:48:34;;;;;;;10.55;1.92;;;15.20;99.90;;;;;;5112268;27;20483;-89
2022/05/12 04:51:11;;;;;;;5.65;1.00;;;15.20;99.90;;;;;;5113402;27;20053;-87
2022/05/12 04:53:38;;;;;;;2.33;1.00;;;15.30;99.90;;;;;;5106312;27;20015;-87
2022/05/12 04:56:04;;;;;;;6.70;1.05;;;15.20;99.90;;;;;;5109691;28;20031;-86
2022/05/12 04:58:30;;;;;;;5.93;1.52;;;15.20;99.90;;;;;;5097117;27;20555;-86
2022/05/12 05:00:55;;;;;;;5.18;1.58;;;15.20;99.90;;;;;;5113492;28;20091;-86
2022/05/12 05:03:21;;;;;;;8.57;1.67;;;15.20;99.90;;;;;;5119950;27;20031;-90
2022/05/12 05:05:49;;;;;;;8.43;1.90;;;15.10;99.90;;;;;;5113287;27;20027;-92
2022/05/12 05:08:17;;;;;;;7.45;1.23;;;14.90;99.90;;;;;;5114422;27;20023;-87
2022/05/12 05:10:43;;;;;;;1.98;1.13;;;14.80;99.90;;;;;;5113358;28;20020;-90
2022/05/12 05:13:08;;;;;;;10.40;1.80;;;14.70;99.90;;;;;;5112465;28;20455;-88
2022/05/12 05:15:35;;;;;;;8.55;1.33;;;14.50;99.90;;;;;;5111321;28;20426;-87
2022/05/12 05:18:01;;;;;;;11.98;1.20;;;14.30;99.90;;;;;;5113472;27;20018;-88
2022/05/12 05:20:28;;;;;;;6.40;1.48;;;14.20;99.90;;;;;;5112134;28;20380;-87
2022/05/12 05:22:54;;;;;;;5.47;1.02;;;14.10;99.90;;;;;;5110659;28;20036;-88
2022/05/12 05:25:21;;;;;;;9.35;1.77;;;14.10;99.90;;;;;;5113233;27;20023;-87
2022/05/12 05:27:48;;;;;;;5.45;1.40;;;14.00;99.90;;;;;;5111878;28;20043;-91
2022/05/12 05:30:18;;;;;;;4.68;1.10;;;14.00;99.90;;;;;;5112979;27;20497;-88
2022/05/12 05:32:46;;;;;;;6.53;1.75;;;13.90;99.90;;;;;;5111953;28;20035;-88
2022/05/12 05:35:12;;;;;;;3.95;0.93;;;13.90;99.90;;;;;;5112212;28;20034;-87
2022/05/12 05:37:38;;;;;;;9.75;1.27;;;13.90;99.90;;;;;;5110498;28;20024;-88
2022/05/12 05:40:05;;;;;;;6.20;1.08;;;14.00;99.90;;;;;;5112199;27;20386;-87
2022/05/12 05:42:31;;;;;;;11.60;1.17;;;14.00;99.90;;;;;;5101142;28;20483;-87
2022/05/12 05:44:57;;;;;;;4.07;1.10;;;14.10;99.90;;;;;;5107585;28;20030;-90
2022/05/12 05:47:23;;;;;;;5.88;0.82;;;14.20;99.90;;;;;;5112843;27;20570;-87
2022/05/12 05:49:49;;;;;;;2.20;0.75;;;14.20;99.90;;;;;;5133199;27;20031;-87
2022/05/12 05:54:58;;;;;;;3.35;0.93;;;14.40;99.90;;;;;;5112640;28;20414;-87
2022/05/12 05:57:30;;;;;;;3.65;0.77;;;14.40;99.90;;;;;;5112558;28;20024;-88
2022/05/12 05:59:57;;;;;;;9.60;1.00;;;14.50;99.90;;;;;;5109933;28;20076;-87
2022/05/12 06:02:23;;;;;;;6.90;1.33;;;14.60;99.90;;;;;;5110376;28;20075;-86
2022/05/12 06:04:49;;;;;;;4.32;1.10;;;14.60;99.90;;;;;;5114213;28;20443;-88
2022/05/12 06:07:15;;;;;;;6.30;1.40;;;14.60;99.90;;;;;;5114335;28;20110;-87
2022/05/12 06:09:43;;;;;;;3.88;0.80;;;14.50;99.90;;;;;;5105021;28;20104;-89
2022/05/12 06:12:11;;;;;;;2.63;0.90;;;14.50;99.90;;;;;;5117098;28;20031;-89
2022/05/12 06:14:38;;;;;;;2.88;0.73;;;14.50;99.90;;;;;;5114637;28;20357;-87
2022/05/12 06:17:05;;;;;;;2.03;0.88;;;14.50;99.90;;;;;;5116817;28;20011;-86
2022/05/12 06:19:31;;;;;;;8.40;1.00;;;14.40;99.90;;;;;;5113952;28;20027;-86
2022/05/12 06:21:57;;;;;;;2.25;0.80;;;14.40;99.90;;;;;;5096095;28;20471;-87
2022/05/12 06:24:24;;;;;;;2.08;0.68;;;14.40;99.90;;;;;;5115875;28;20020;-86
2022/05/12 06:26:51;;;;;;;4.93;0.85;;;14.50;99.90;;;;;;5116579;28;20027;-86
2022/05/12 06:29:17;;;;;;;1.73;0.65;;;14.60;99.90;;;;;;5096808;28;20024;-86
2022/05/12 06:31:43;;;;;;;1.63;0.73;;;14.70;99.90;;;;;;5108512;28;20023;-87
2022/05/12 06:34:09;;;;;;;9.32;1.15;;;14.80;99.90;;;;;;5111179;28;20028;-86
2022/05/12 06:36:34;;;;;;;8.57;1.05;;;14.90;99.90;;;;;;5106835;28;20443;-87
2022/05/12 06:39:06;;;;;;;3.40;0.60;;;15.00;99.90;;;;;;5114248;28;20016;-88
2022/05/12 06:41:34;;;;;;;4.90;0.80;;;15.10;99.90;;;;;;5116487;28;20027;-85
2022/05/12 06:44:01;;;;;;;3.13;0.75;;;15.10;99.90;;;;;;5115711;28;20068;-86
2022/05/12 06:46:45;;;;;;;4.10;0.80;;;15.10;99.90;;;;;;5105644;28;20043;-91
2022/05/12 06:49:11;;;;;;;3.95;1.02;;;15.20;99.90;;;;;;5111963;28;20424;-86
2022/05/12 06:51:39;;;;;;;1.85;0.70;;;15.20;99.90;;;;;;5097608;28;20056;-86
2022/05/12 06:54:05;;;;;;;3.42;0.90;;;15.10;99.90;;;;;;5107366;28;20047;-85
2022/05/12 06:56:31;;;;;;;0.55;0.55;;;15.10;99.90;;;;;;5104089;28;20388;-85
2022/05/12 06:58:57;;;;;;;4.88;0.68;;;15.10;99.90;;;;;;5107224;28;20022;-85
2022/05/12 07:01:24;;;;;;;7.43;1.10;;;15.10;99.90;;;;;;5095293;28;20020;-85
2022/05/12 07:03:50;;;;;;;3.97;0.98;;;15.10;99.90;;;;;;5094793;28;20063;-86
2022/05/12 07:06:16;;;;;;;3.70;0.90;;;15.20;99.90;;;;;;5095449;28;20024;-85
2022/05/12 07:08:43;;;;;;;5.30;0.70;;;15.10;99.90;;;;;;5094906;28;20043;-86
2022/05/12 07:11:12;;;;;;;3.75;0.70;;;15.10;99.90;;;;;;5094770;28;20028;-85
2022/05/12 07:13:38;;;;;;;5.53;1.25;;;15.20;99.90;;;;;;5093971;28;20368;-87
2022/05/12 07:16:05;;;;;;;3.08;0.57;;;15.30;99.90;;;;;;5094886;28;20055;-86
2022/05/12 07:18:31;;;;;;;1.67;0.75;;;15.30;99.90;;;;;;5094651;28;20031;-86
2022/05/12 07:26:41;;;;;;;1.67;0.70;;;15.50;99.90;;;;;;5095270;28;20089;-85
2022/05/12 07:29:10;;;;;;;4.90;0.80;;;15.50;99.90;;;;;;5094942;28;20020;-87
2022/05/12 07:31:36;;;;;;;5.70;0.60;;;15.50;99.90;;;;;;5094247;28;20032;-86
2022/05/12 07:34:03;;;;;;;2.45;0.57;;;15.60;99.90;;;;;;5094616;28;20468;-82
2022/05/12 07:36:36;;;;;;;6.70;0.88;;;15.70;99.90;;;;;;5094515;28;20081;-82
2022/05/12 07:39:03;;;;;;;3.65;1.05;;;15.70;99.90;;;;;;5094542;28;20495;-82
2022/05/12 07:41:29;;;;;;;3.03;0.88;;;15.60;99.90;;;;;;5094389;28;20085;-82
2022/05/12 07:43:55;;;;;;;5.15;1.33;;;15.60;99.90;;;;;;5094505;28;20032;-82
2022/05/12 07:46:24;;;;;;;1.92;0.80;;;15.70;99.90;;;;;;5094236;28;20024;-82
2022/05/12 07:48:50;;;;;;;3.10;0.77;;;15.80;99.90;;;;;;5094362;28;20028;-82
2022/05/12 07:51:17;;;;;;;6.30;1.13;;;15.80;99.90;;;;;;5080828;28;20063;-82
2022/05/12 07:53:46;;;;;;;4.38;1.38;;;15.80;99.90;;;;;;5112482;28;20023;-82
2022/05/12 07:56:12;;;;;;;4.55;1.13;;;15.80;99.90;;;;;;5096521;28;20058;-82
2022/05/12 07:58:38;;;;;;;3.85;1.05;;;15.80;99.90;;;;;;5113824;28;20026;-82
2022/05/12 08:01:05;;;;;;;3.20;0.88;;;15.80;99.90;;;;;;5104477;28;20024;-82
2022/05/12 08:03:31;;;;;;;5.88;0.98;;;15.80;99.90;;;;;;5093539;28;20420;-83
2022/05/12 08:05:59;;;;;;;3.83;1.17;;;15.80;99.90;;;;;;5092572;28;20027;-82
2022/05/12 08:08:25;;;;;;;4.10;0.88;;;15.80;99.90;;;;;;5094129;28;20081;-82
2022/05/12 08:10:51;;;;;;;1.40;0.57;;;15.90;99.90;;;;;;5094081;28;20077;-82
2022/05/12 08:13:17;;;;;;;2.05;0.85;;;15.90;99.90;;;;;;5093783;28;20020;-82
2022/05/12 08:15:45;;;;;;;4.70;1.13;;;16.00;99.90;;;;;;5094033;28;20031;-82
2022/05/12 08:18:11;;;;;;;3.92;1.23;;;16.00;99.90;;;;;;5074399;28;20025;-82
2022/05/12 08:20:38;;;;;;;7.85;1.55;;;16.00;99.90;;;;;;5093792;28;20054;-82
2022/05/12 08:23:04;;;;;;;7.72;1.50;;;16.10;99.90;;;;;;5093910;28;20020;-82
2022/05/12 08:25:29;;;;;;;8.82;1.00;;;16.10;99.90;;;;;;5093025;28;20023;-82
2022/05/12 08:27:56;;;;;;;4.40;1.30;;;16.20;99.90;;;;;;5093714;28;20024;-82
2022/05/12 08:30:21;;;;;;;5.63;1.00;;;16.20;99.90;;;;;;5093679;28;20483;-82
2022/05/12 08:32:47;;;;;;;10.45;1.38;;;16.30;99.90;;;;;;5093081;28;20028;-82
2022/05/12 08:35:13;;;;;;;6.50;1.00;;;16.40;99.90;;;;;;5093360;28;20032;-82
2022/05/12 08:37:39;;;;;;;6.10;1.02;;;16.40;99.90;;;;;;5093311;28;20016;-82
2022/05/12 08:40:06;;;;;;;2.55;0.88;;;16.50;99.90;;;;;;5093480;28;20043;-82
2022/05/12 08:42:45;;;;;;;6.38;1.15;;;16.50;99.90;;;;;;5093090;28;20032;-82
2022/05/12 08:45:14;;;;;;;5.22;1.05;;;16.60;99.90;;;;;;5093057;28;20388;-82
2022/05/12 08:47:43;;;;;;;4.47;1.30;;;16.60;99.90;;;;;;5092840;28;20026;-82
2022/05/12 08:50:19;;;;;;;5.68;0.90;;;16.60;99.90;;;;;;5093045;28;20016;-82
2022/05/12 08:52:50;;;;;;;7.75;1.33;;;16.60;99.90;;;;;;5092890;28;20472;-82
2022/05/12 08:55:43;;;;;;;6.90;1.40;;;16.70;99.90;;;;;;5092975;28;20048;-82
2022/05/12 08:58:23;;;;;;;5.07;1.42;;;16.70;99.90;;;;;;5092900;28;20036;-82
2022/05/12 09:01:09;;;;;;;5.35;1.20;;;16.70;99.90;;;;;;5092933;28;20051;-82
2022/05/12 09:03:40;;;;;;;5.20;1.02;;;16.80;99.90;;;;;;5092811;28;20024;-83
2022/05/12 09:06:41;;;;;;;3.00;0.82;;;16.80;99.90;;;;;;5074793;28;20035;-83
2022/05/12 09:09:39;;;;;;;5.90;1.35;;;16.80;99.90;;;;;;5088714;28;20519;-83
2022/05/12 09:12:42;;;;;;;5.18;0.90;;;16.90;99.90;;;;;;5092927;28;20056;-83
2022/05/12 09:15:15;;;;;;;6.75;1.15;;;17.00;99.90;;;;;;5092759;28;20027;-83
2022/05/12 09:17:55;;;;;;;5.35;1.30;;;17.00;99.90;;;;;;5092337;28;20353;-83
2022/05/12 09:20:21;;;;;;;15.45;1.20;;;17.00;99.90;;;;;;5074493;28;20429;-84
2022/05/12 09:22:46;;;;;;;5.63;0.75;;;17.00;99.90;;;;;;5092667;28;20032;-82
2022/05/12 09:25:31;;;;;;;5.10;1.00;;;17.00;99.90;;;;;;5092686;28;20391;-82
2022/05/12 09:28:00;;;;;;;3.90;1.40;;;16.90;99.90;;;;;;5092690;28;20035;-82
2022/05/12 09:30:33;;;;;;;8.45;1.02;;;16.80;99.90;;;;;;5092779;28;20038;-82
2022/05/12 09:32:59;;;;;;;5.60;1.65;;;16.90;99.90;;;;;;5082042;27;20023;-82
2022/05/12 09:35:27;;;;;;;3.45;1.00;;;16.90;99.90;;;;;;5132636;27;20034;-82
2022/05/12 09:37:53;;;;;;;5.75;1.30;;;16.80;99.90;;;;;;5114449;27;20096;-83
2022/05/12 09:40:21;;;;;;;4.10;1.15;;;16.90;99.90;;;;;;5133147;27;20019;-83
2022/05/12 09:42:58;;;;;;;7.07;1.40;;;16.90;99.90;;;;;;5114870;27;20523;-83
2022/05/12 09:45:34;;;;;;;6.18;1.10;;;16.90;99.90;;;;;;5133362;27;20042;-83
2022/05/12 09:48:21;;;;;;;6.28;1.30;;;16.90;99.90;;;;;;5128854;27;20028;-82
2022/05/12 09:50:48;;;;;;;3.35;1.52;;;16.80;99.90;;;;;;5092617;28;20104;-83
2022/05/12 09:53:25;;;;;;;4.22;1.20;;;16.80;99.90;;;;;;5107252;28;20440;-82
2022/05/12 09:56:01;;;;;;;5.35;1.33;;;16.80;99.90;;;;;;5108228;28;20631;-82
2022/05/12 09:58:50;;;;;;;4.25;1.67;;;16.80;99.90;;;;;;5110650;28;20374;-82
2022/05/12 10:01:22;;;;;;;3.38;1.15;;;17.00;99.90;;;;;;5111981;28;20026;-82
2022/05/12 10:09:29;;;;;;;;;;;17.40;99.90;;;;;;5100766;28;20036;-82
2022/05/12 10:12:17;;;;;;;3.17;0.70;;;17.50;98.00;;;;;;5092696;28;20303;-82
2022/05/12 10:15:01;;;;;;;6.55;1.35;;;17.60;94.20;;;;;;5102814;28;20026;-83
2022/05/12 10:17:33;;;;;;;4.68;0.85;;;17.80;93.10;;;;;;5129454;28;20023;-82
2022/05/12 10:20:02;;;;;;;1.70;0.80;;;17.80;92.30;;;;;;5111389;28;20031;-83
2022/05/12 10:22:31;;;;;;;2.58;0.85;;;17.90;85.70;;;;;;5112211;28;20055;-83
2022/05/12 10:25:34;;;;;;;8.43;1.27;;;18.00;79.20;;;;;;5110112;28;20128;-83
2022/05/12 10:28:23;;;;;;;1.73;0.70;;;18.20;79.90;;;;;;5080972;28;20051;-83
2022/05/12 10:31:06;;;;;;;1.83;0.75;;;18.30;71.20;;;;;;5092914;28;20475;-82
2022/05/12 10:33:36;;;;;;;4.10;0.98;;;18.30;69.00;;;;;;5112432;28;20028;-83
2022/05/12 10:36:35;;;;;;;3.00;0.93;;;18.20;67.10;;;;;;5111422;28;20418;-82
2022/05/12 10:39:19;;;;;;;3.13;0.90;;;18.20;63.30;;;;;;5112180;28;20026;-84
2022/05/12 10:42:10;;;;;;;4.70;1.08;;;18.20;66.40;;;;;;5112526;28;20047;-83
2022/05/12 10:45:06;;;;;;;3.65;1.48;;;18.10;64.20;;;;;;5117519;28;20375;-83
2022/05/12 10:47:58;;;;;;;3.75;1.40;;;18.10;62.70;;;;;;5074051;28;20042;-83
2022/05/12 10:50:28;;;;;;;2.97;1.00;;;18.10;64.50;;;;;;5116475;28;20035;-83
2022/05/12 10:53:15;;;;;;;6.68;1.20;;;18.30;61.10;;;;;;5116374;28;20471;-83
2022/05/12 10:56:08;;;;;;;2.80;0.60;;;18.40;57.20;;;;;;5093536;28;20048;-83
2022/05/12 10:58:52;;;;;;;3.28;0.65;;;18.30;58.90;;;;;;5128183;27;20069;-85
2022/05/12 11:01:56;;;;;;;3.38;0.80;;;18.40;61.50;;;;;;5077620;28;20384;-85
2022/05/12 11:04:37;;;;;;;2.67;0.90;;;18.50;56.00;;;;;;5097984;27;20027;-83
2022/05/12 11:07:37;;;;;;;4.20;1.00;;;18.50;53.80;;;;;;5128208;27;20016;-84
2022/05/12 11:10:20;;;;;;;5.15;1.15;;;18.50;52.80;;;;;;5122261;27;20079;-84
2022/05/12 11:12:51;;;;;;;3.38;1.25;;;18.50;55.60;;;;;;5118156;27;20057;-84
2022/05/12 11:15:27;;;;;;;2.40;0.93;;;18.60;54.70;;;;;;5120313;27;20055;-84
2022/05/12 11:18:04;;;;;;;4.28;0.80;;;18.70;54.40;;;;;;5131419;27;20034;-83
2022/05/12 11:20:42;;;;;;;4.25;1.25;;;18.80;55.60;;;;;;5125495;27;20027;-85
2022/05/12 11:23:26;;;;;;;3.80;0.85;;;18.90;56.10;;;;;;5076835;28;20028;-87
2022/05/12 11:26:09;;;;;;;6.32;1.13;;;19.10;51.60;;;;;;5085193;28;20549;-87
2022/05/12 11:31:41;;;;;;;7.68;1.10;;;19.30;52.20;;;;;;5112830;27;20034;-86
2022/05/12 11:34:13;;;;;;;6.32;0.73;;;19.30;54.40;;;;;;5105584;28;20026;-86
2022/05/12 11:36:45;;;;;;;2.95;1.02;;;19.40;53.60;;;;;;5110771;27;20024;-90
2022/05/12 11:39:22;;;;;;;4.63;0.90;;;19.50;52.70;;;;;;5093581;28;20023;-86
2022/05/12 11:41:48;;;;;;;5.20;1.00;;;19.60;56.60;;;;;;5113735;28;20043;-88
2022/05/12 11:44:34;;;;;;;11.73;1.00;;;19.70;54.60;;;;;;5095488;28;20501;-87
2022/05/12 11:47:54;;;;;;;6.40;0.90;;;19.70;54.20;;;;;;5089682;27;20049;-85
2022/05/12 11:50:51;;;;;;;2.00;0.82;;;19.60;52.50;;;;;;5057072;28;20115;-85
2022/05/12 11:53:27;;;;;;;5.40;1.05;;;19.40;51.50;;;;;;5052186;28;20094;-87
2022/05/12 11:56:09;;;;;;;6.38;1.08;;;19.30;51.50;;;;;;5056153;28;20098;-86
2022/05/12 11:58:35;;;;;;;2.90;1.05;;;19.30;51.30;;;;;;5061785;28;20425;-86
2022/05/12 12:01:13;;;;;;;3.40;0.80;;;19.40;51.10;;;;;;5054806;28;20025;-89
2022/05/12 12:03:51;;;;;;;3.42;0.90;;;19.40;51.50;;;;;;5053026;28;20033;-86
2022/05/12 12:06:40;;;;;;;1.75;0.68;;;19.50;50.50;;;;;;5093452;27;20542;-88
2022/05/12 12:09:49;;;;;;;37.65;2.90;;;19.60;48.50;;;;;;5107357;27;20019;-91
2022/05/12 12:12:40;;;;;;;8.95;2.08;;;19.80;48.60;;;;;;5095249;27;20364;-90
2022/05/12 12:15:32;;;;;;;7.07;0.95;;;19.80;47.70;;;;;;5112217;27;20133;-84
2022/05/12 12:18:18;;;;;;;5.47;1.25;;;19.90;49.40;;;;;;5095974;28;20069;-85
2022/05/12 12:20:48;;;;;;;13.02;2.55;;;20.10;47.60;;;;;;5095189;28;20533;-85
2022/05/12 12:23:37;;;;;;;39.92;3.83;;;20.00;49.50;;;;;;5114161;27;20118;-85
2022/05/12 12:26:41;;;;;;;8.35;1.48;;;20.10;49.00;;;;;;5097030;28;20035;-85
2022/05/12 12:29:09;;;;;;;4.88;0.85;;;20.40;53.40;;;;;;5095581;27;20050;-85
2022/05/12 12:32:15;;;;;;;4.88;0.90;;;20.50;48.70;;;;;;5099875;27;20094;-89
2022/05/12 12:34:49;;;;;;;5.75;0.98;;;20.50;47.00;;;;;;5112288;28;20114;-85
2022/05/12 12:37:43;;;;;;;6.47;1.00;;;20.60;45.30;;;;;;5114421;27;20249;-85
2022/05/12 12:40:30;;;;;;;5.28;0.82;;;20.60;44.60;;;;;;5116399;27;20502;-86
2022/05/12 12:43:19;;;;;;;3.40;0.90;;;20.60;44.90;;;;;;5105639;28;20383;-86
2022/05/12 12:45:48;;;;;;;1.80;0.70;;;20.60;42.00;;;;;;5098646;28;20039;-85
2022/05/12 12:48:20;;;;;;;2.00;0.70;;;20.60;42.60;;;;;;5095163;28;20051;-87
2022/05/12 12:50:51;;;;;;;4.45;0.80;;;20.60;44.90;;;;;;5096981;28;20532;-86
2022/05/12 12:56:35;;;;;;;3.38;1.00;;;20.40;44.40;;;;;;5097977;28;20051;-88
2022/05/12 12:59:16;;;;;;;2.13;0.80;;;20.50;45.70;;;;;;5103257;28;20035;-86
2022/05/12 13:01:48;;;;;;;6.90;0.98;;;20.60;45.30;;;;;;5098004;28;20020;-89
2022/05/12 13:04:32;;;;;;;2.38;1.02;;;20.60;49.40;;;;;;5093584;28;20031;-86
2022/05/12 13:07:11;;;;;;;3.55;1.08;;;20.60;49.20;;;;;;5090299;28;20384;-87
2022/05/12 13:09:39;;;;;;;6.30;1.10;;;20.50;48.90;;;;;;5109817;28;20030;-88
2022/05/12 13:12:17;;;;;;;3.30;0.80;;;20.50;44.30;;;;;;5100192;28;20084;-86
2022/05/12 13:14:47;;;;;;;2.78;0.80;;;20.50;42.70;;;;;;5094621;28;20429;-86
2022/05/12 13:17:18;;;;;;;4.32;1.00;;;20.60;44.20;;;;;;5112242;28;20031;-85
2022/05/12 13:20:11;;;;;;;4.13;1.33;;;20.70;45.50;;;;;;5104411;28;20459;-85
2022/05/12 13:22:44;;;;;;;6.70;0.93;;;20.80;45.90;;;;;;5103562;28;20403;-89
2022/05/12 13:25:15;;;;;;;5.55;1.40;;;20.70;44.00;;;;;;5106156;28;20039;-86
2022/05/12 13:27:42;;;;;;;9.23;1.95;;;20.60;43.60;;;;;;5106351;28;20031;-85
2022/05/12 13:30:19;;;;;;;14.30;1.15;;;20.70;43.60;;;;;;5111019;28;20483;-85
2022/05/12 13:32:47;;;;;;;3.38;0.90;;;20.70;44.60;;;;;;5090942;28;20023;-84
2022/05/12 13:35:23;;;;;;;3.40;0.80;;;20.70;44.40;;;;;;5104439;28;20080;-84
2022/05/12 13:38:05;;;;;;;4.80;1.20;;;20.70;45.00;;;;;;5092991;28;20794;-84
2022/05/12 13:41:13;;;;;;;7.47;0.82;;;20.60;45.60;;;;;;5082631;28;20016;-84
2022/05/12 13:43:38;;;;;;;3.08;0.80;;;20.50;43.50;;;;;;5037493;28;20119;-84
2022/05/12 13:46:06;;;;;;;5.38;1.02;;;20.40;43.10;;;;;;5082831;28;20353;-86